sensor_id;sensor_type;location;lat;lon;timestamp;temperature;humidity
52919;DHT22;38793;52.690;6.812;2023-02-10T00:01:39;1.70;99.90
52919;DHT22;38793;52.690;6.812;2023-02-10T00:04:04;1.70;99.90
52919;DHT22;38793;52.690;6.812;2023-02-10T00:06:30;1.70;99.90
52919;DHT22;38793;52.690;6.812;2023-02-10T00:08:58;1.70;99.90
52919;DHT22;38793;52.690;6.812;2023-02-10T00:11:25;1.70;99.90
52919;DHT22;38793;52.690;6.812;2023-02-10T00:14:23;1.70;99.90
52919;DHT22;38793;52.690;6.812;2023-02-10T00:16:51;1.70;99.90
52919;DHT22;38793;52.690;6.812;2023-02-10T00:19:17;1.80;99.90
52919;DHT22;38793;52.690;6.812;2023-02-10T00:21:42;1.70;99.90
52919;DHT22;38793;52.690;6.812;2023-02-10T00:24:08;1.70;99.90
52919;DHT22;38793;52.690;6.812;2023-02-10T00:26:34;1.70;99.90
52919;DHT22;38793;52.690;6.812;2023-02-10T00:28:59;1.80;99.90
52919;DHT22;38793;52.690;6.812;2023-02-10T00:31:25;1.70;99.90
52919;DHT22;38793;52.690;6.812;2023-02-10T00:33:50;1.70;99.90
52919;DHT22;38793;52.690;6.812;2023-02-10T00:36:16;1.70;99.90
52919;DHT22;38793;52.690;6.812;2023-02-10T00:38:43;1.60;99.90
52919;DHT22;38793;52.690;6.812;2023-02-10T00:41:16;1.60;99.90
52919;DHT22;38793;52.690;6.812;2023-02-10T00:43:43;1.60;99.90
52919;DHT22;38793;52.690;6.812;2023-02-10T00:46:13;1.60;99.90
52919;DHT22;38793;52.690;6.812;2023-02-10T00:48:39;1.60;99.90
52919;DHT22;38793;52.690;6.812;2023-02-10T00:51:06;1.60;99.90
52919;DHT22;38793;52.690;6.812;2023-02-10T00:53:32;1.70;99.90
52919;DHT22;38793;52.690;6.812;2023-02-10T00:56:01;1.70;99.90
52919;DHT22;38793;52.690;6.812;2023-02-10T00:58:26;1.70;99.90
52919;DHT22;38793;52.690;6.812;2023-02-10T01:00:54;1.70;99.90
52919;DHT22;38793;52.690;6.812;2023-02-10T01:03:20;1.70;99.90
52919;DHT22;38793;52.690;6.812;2023-02-10T01:05:46;1.70;99.90
52919;DHT22;38793;52.690;6.812;2023-02-10T01:08:12;1.70;99.90
52919;DHT22;38793;52.690;6.812;2023-02-10T01:10:38;1.60;99.90
52919;DHT22;38793;52.690;6.812;2023-02-10T01:13:06;1.50;99.90
52919;DHT22;38793;52.690;6.812;2023-02-10T01:15:32;1.40;99.90
52919;DHT22;38793;52.690;6.812;2023-02-10T01:17:58;1.30;99.90
52919;DHT22;38793;52.690;6.812;2023-02-10T01:20:24;1.30;99.90
52919;DHT22;38793;52.690;6.812;2023-02-10T01:22:49;1.20;99.90
52919;DHT22;38793;52.690;6.812;2023-02-10T01:25:15;1.20;99.90
52919;DHT22;38793;52.690;6.812;2023-02-10T01:27:41;1.20;99.90
52919;DHT22;38793;52.690;6.812;2023-02-10T01:30:07;1.20;99.90
52919;DHT22;38793;52.690;6.812;2023-02-10T01:32:36;1.20;99.90
52919;DHT22;38793;52.690;6.812;2023-02-10T01:35:02;1.30;99.90
52919;DHT22;38793;52.690;6.812;2023-02-10T01:37:28;1.20;99.90
52919;DHT22;38793;52.690;6.812;2023-02-10T01:39:53;1.20;99.90
52919;DHT22;38793;52.690;6.812;2023-02-10T01:42:19;1.20;99.90
52919;DHT22;38793;52.690;6.812;2023-02-10T01:47:10;1.20;99.90
52919;DHT22;38793;52.690;6.812;2023-02-10T01:49:41;1.10;99.90
52919;DHT22;38793;52.690;6.812;2023-02-10T01:52:14;1.00;99.90
52919;DHT22;38793;52.690;6.812;2023-02-10T01:54:45;1.00;99.90
52919;DHT22;38793;52.690;6.812;2023-02-10T01:57:12;1.00;99.90
52919;DHT22;38793;52.690;6.812;2023-02-10T01:59:39;1.00;99.90
52919;DHT22;38793;52.690;6.812;2023-02-10T02:02:07;1.00;99.90
52919;DHT22;38793;52.690;6.812;2023-02-10T02:04:44;1.00;99.90
52919;DHT22;38793;52.690;6.812;2023-02-10T02:07:11;0.90;99.90
52919;DHT22;38793;52.690;6.812;2023-02-10T02:09:37;0.90;99.90
52919;DHT22;38793;52.690;6.812;2023-02-10T02:23:40;0.90;99.90
52919;DHT22;38793;52.690;6.812;2023-02-10T02:29:24;0.80;99.90
52919;DHT22;38793;52.690;6.812;2023-02-10T02:32:19;0.80;99.90
52919;DHT22;38793;52.690;6.812;2023-02-10T02:34:56;0.80;99.90
52919;DHT22;38793;52.690;6.812;2023-02-10T02:37:29;0.70;99.90
52919;DHT22;38793;52.690;6.812;2023-02-10T02:39:55;0.70;99.90
52919;DHT22;38793;52.690;6.812;2023-02-10T02:42:23;0.80;99.90
52919;DHT22;38793;52.690;6.812;2023-02-10T02:45:26;0.80;99.90
52919;DHT22;38793;52.690;6.812;2023-02-10T02:48:11;0.80;99.90
52919;DHT22;38793;52.690;6.812;2023-02-10T02:59:19;0.70;99.90
52919;DHT22;38793;52.690;6.812;2023-02-10T03:01:46;0.60;99.90
52919;DHT22;38793;52.690;6.812;2023-02-10T03:04:16;0.60;99.90
52919;DHT22;38793;52.690;6.812;2023-02-10T03:06:42;0.50;99.90
52919;DHT22;38793;52.690;6.812;2023-02-10T03:09:08;0.50;99.90
52919;DHT22;38793;52.690;6.812;2023-02-10T03:11:34;0.40;99.90
52919;DHT22;38793;52.690;6.812;2023-02-10T03:13:59;0.40;99.90
52919;DHT22;38793;52.690;6.812;2023-02-10T03:16:25;0.30;99.90
52919;DHT22;38793;52.690;6.812;2023-02-10T03:18:50;0.30;99.90
52919;DHT22;38793;52.690;6.812;2023-02-10T03:21:16;0.30;99.90
52919;DHT22;38793;52.690;6.812;2023-02-10T03:23:42;0.40;99.90
52919;DHT22;38793;52.690;6.812;2023-02-10T03:26:07;0.30;99.90
52919;DHT22;38793;52.690;6.812;2023-02-10T03:28:33;0.30;99.90
52919;DHT22;38793;52.690;6.812;2023-02-10T03:31:03;0.40;99.90
52919;DHT22;38793;52.690;6.812;2023-02-10T03:33:28;0.50;99.90
52919;DHT22;38793;52.690;6.812;2023-02-10T03:35:54;0.50;99.90
52919;DHT22;38793;52.690;6.812;2023-02-10T03:38:19;0.50;99.90
52919;DHT22;38793;52.690;6.812;2023-02-10T03:40:49;0.60;99.90
52919;DHT22;38793;52.690;6.812;2023-02-10T03:43:15;0.60;99.90
52919;DHT22;38793;52.690;6.812;2023-02-10T03:45:40;0.70;99.90
52919;DHT22;38793;52.690;6.812;2023-02-10T03:48:06;0.70;99.90
52919;DHT22;38793;52.690;6.812;2023-02-10T03:50:32;0.80;99.90
52919;DHT22;38793;52.690;6.812;2023-02-10T03:52:58;0.80;99.90
52919;DHT22;38793;52.690;6.812;2023-02-10T03:55:24;0.80;99.90
52919;DHT22;38793;52.690;6.812;2023-02-10T03:57:50;0.70;99.90
52919;DHT22;38793;52.690;6.812;2023-02-10T04:00:16;0.70;99.90
52919;DHT22;38793;52.690;6.812;2023-02-10T04:02:41;0.70;99.90
52919;DHT22;38793;52.690;6.812;2023-02-10T04:05:07;0.60;99.90
52919;DHT22;38793;52.690;6.812;2023-02-10T04:07:33;0.70;99.90
52919;DHT22;38793;52.690;6.812;2023-02-10T04:09:58;0.60;99.90
52919;DHT22;38793;52.690;6.812;2023-02-10T04:12:24;0.60;99.90
52919;DHT22;38793;52.690;6.812;2023-02-10T04:14:49;0.60;99.90
52919;DHT22;38793;52.690;6.812;2023-02-10T04:17:15;0.50;99.90
52919;DHT22;38793;52.690;6.812;2023-02-10T04:19:41;0.50;99.90
52919;DHT22;38793;52.690;6.812;2023-02-10T04:22:06;0.60;99.90
52919;DHT22;38793;52.690;6.812;2023-02-10T04:24:32;0.60;99.90
52919;DHT22;38793;52.690;6.812;2023-02-10T04:26:57;0.60;99.90
52919;DHT22;38793;52.690;6.812;2023-02-10T04:29:23;0.70;99.90
52919;DHT22;38793;52.690;6.812;2023-02-10T04:31:49;0.70;99.90
52919;DHT22;38793;52.690;6.812;2023-02-10T04:34:14;0.70;99.90
52919;DHT22;38793;52.690;6.812;2023-02-10T04:36:40;0.70;99.90
52919;DHT22;38793;52.690;6.812;2023-02-10T04:39:06;0.70;99.90
52919;DHT22;38793;52.690;6.812;2023-02-10T04:41:32;0.70;99.90
52919;DHT22;38793;52.690;6.812;2023-02-10T04:43:57;0.70;99.90
52919;DHT22;38793;52.690;6.812;2023-02-10T04:46:23;0.70;99.90
52919;DHT22;38793;52.690;6.812;2023-02-10T04:48:48;0.70;99.90
52919;DHT22;38793;52.690;6.812;2023-02-10T04:51:14;0.70;99.90
52919;DHT22;38793;52.690;6.812;2023-02-10T04:53:40;0.80;99.90
52919;DHT22;38793;52.690;6.812;2023-02-10T04:56:06;0.80;99.90
52919;DHT22;38793;52.690;6.812;2023-02-10T04:58:32;0.80;99.90
52919;DHT22;38793;52.690;6.812;2023-02-10T05:00:58;0.90;99.90
52919;DHT22;38793;52.690;6.812;2023-02-10T05:03:24;0.80;99.90
52919;DHT22;38793;52.690;6.812;2023-02-10T05:05:50;0.90;99.90
52919;DHT22;38793;52.690;6.812;2023-02-10T05:08:18;0.80;99.90
52919;DHT22;38793;52.690;6.812;2023-02-10T05:10:52;0.70;99.90
52919;DHT22;38793;52.690;6.812;2023-02-10T05:13:19;0.70;99.90
52919;DHT22;38793;52.690;6.812;2023-02-10T05:15:45;0.70;99.90
52919;DHT22;38793;52.690;6.812;2023-02-10T05:18:11;0.80;99.90
52919;DHT22;38793;52.690;6.812;2023-02-10T05:20:37;0.80;99.90
52919;DHT22;38793;52.690;6.812;2023-02-10T05:23:02;0.80;99.90
52919;DHT22;38793;52.690;6.812;2023-02-10T05:25:28;0.80;99.90
52919;DHT22;38793;52.690;6.812;2023-02-10T05:27:54;0.80;99.90
52919;DHT22;38793;52.690;6.812;2023-02-10T05:30:19;0.80;99.90
52919;DHT22;38793;52.690;6.812;2023-02-10T05:32:45;0.90;99.90
52919;DHT22;38793;52.690;6.812;2023-02-10T05:35:11;0.90;99.90
52919;DHT22;38793;52.690;6.812;2023-02-10T05:37:37;0.90;99.90
52919;DHT22;38793;52.690;6.812;2023-02-10T05:40:03;0.90;99.90
52919;DHT22;38793;52.690;6.812;2023-02-10T05:42:29;0.90;99.90
52919;DHT22;38793;52.690;6.812;2023-02-10T05:44:55;0.90;99.90
52919;DHT22;38793;52.690;6.812;2023-02-10T05:47:20;0.80;99.90
52919;DHT22;38793;52.690;6.812;2023-02-10T05:49:46;0.70;99.90
52919;DHT22;38793;52.690;6.812;2023-02-10T05:52:12;0.70;99.90
52919;DHT22;38793;52.690;6.812;2023-02-10T05:54:37;0.60;99.90
52919;DHT22;38793;52.690;6.812;2023-02-10T05:57:03;0.60;99.90
52919;DHT22;38793;52.690;6.812;2023-02-10T05:59:29;0.60;99.90
52919;DHT22;38793;52.690;6.812;2023-02-10T06:01:54;0.60;99.90
52919;DHT22;38793;52.690;6.812;2023-02-10T06:04:20;0.60;99.90
52919;DHT22;38793;52.690;6.812;2023-02-10T06:06:46;0.70;99.90
52919;DHT22;38793;52.690;6.812;2023-02-10T06:09:12;0.70;99.90
52919;DHT22;38793;52.690;6.812;2023-02-10T06:11:37;0.60;99.90
52919;DHT22;38793;52.690;6.812;2023-02-10T06:14:03;0.60;99.90
52919;DHT22;38793;52.690;6.812;2023-02-10T06:16:29;0.50;99.90
52919;DHT22;38793;52.690;6.812;2023-02-10T06:18:54;0.50;99.90
52919;DHT22;38793;52.690;6.812;2023-02-10T06:21:20;0.60;99.90
52919;DHT22;38793;52.690;6.812;2023-02-10T06:23:48;0.60;99.90
52919;DHT22;38793;52.690;6.812;2023-02-10T06:26:14;0.50;99.90
52919;DHT22;38793;52.690;6.812;2023-02-10T06:28:39;0.50;99.90
52919;DHT22;38793;52.690;6.812;2023-02-10T06:31:05;0.50;99.90
52919;DHT22;38793;52.690;6.812;2023-02-10T06:33:33;0.50;99.90
52919;DHT22;38793;52.690;6.812;2023-02-10T06:36:02;0.40;99.90
52919;DHT22;38793;52.690;6.812;2023-02-10T06:38:31;0.40;99.90
52919;DHT22;38793;52.690;6.812;2023-02-10T06:40:56;0.40;99.90
52919;DHT22;38793;52.690;6.812;2023-02-10T06:43:22;0.40;99.90
52919;DHT22;38793;52.690;6.812;2023-02-10T06:45:47;0.40;99.90
52919;DHT22;38793;52.690;6.812;2023-02-10T06:48:13;0.40;99.90
52919;DHT22;38793;52.690;6.812;2023-02-10T06:50:39;0.40;99.90
52919;DHT22;38793;52.690;6.812;2023-02-10T06:53:04;0.40;99.90
52919;DHT22;38793;52.690;6.812;2023-02-10T06:55:30;0.40;99.90
52919;DHT22;38793;52.690;6.812;2023-02-10T06:57:58;0.30;99.90
52919;DHT22;38793;52.690;6.812;2023-02-10T07:00:24;0.40;99.90
52919;DHT22;38793;52.690;6.812;2023-02-10T07:02:50;0.40;99.90
52919;DHT22;38793;52.690;6.812;2023-02-10T07:05:16;0.30;99.90
52919;DHT22;38793;52.690;6.812;2023-02-10T07:07:41;0.40;99.90
52919;DHT22;38793;52.690;6.812;2023-02-10T07:10:07;0.40;99.90
52919;DHT22;38793;52.690;6.812;2023-02-10T07:12:33;0.40;99.90
52919;DHT22;38793;52.690;6.812;2023-02-10T07:14:59;0.40;99.90
52919;DHT22;38793;52.690;6.812;2023-02-10T07:17:24;0.40;99.90
52919;DHT22;38793;52.690;6.812;2023-02-10T07:19:50;0.50;99.90
52919;DHT22;38793;52.690;6.812;2023-02-10T07:22:16;0.60;99.90
52919;DHT22;38793;52.690;6.812;2023-02-10T07:24:41;0.60;99.90
52919;DHT22;38793;52.690;6.812;2023-02-10T07:27:07;0.70;99.90
52919;DHT22;38793;52.690;6.812;2023-02-10T07:29:32;0.70;99.90
52919;DHT22;38793;52.690;6.812;2023-02-10T07:31:58;0.70;99.90
52919;DHT22;38793;52.690;6.812;2023-02-10T07:34:24;0.80;99.90
52919;DHT22;38793;52.690;6.812;2023-02-10T07:36:51;0.80;99.90
52919;DHT22;38793;52.690;6.812;2023-02-10T07:39:23;0.80;99.90
52919;DHT22;38793;52.690;6.812;2023-02-10T07:41:49;0.80;99.90
52919;DHT22;38793;52.690;6.812;2023-02-10T07:44:15;0.90;99.90
52919;DHT22;38793;52.690;6.812;2023-02-10T07:46:41;1.00;99.90
52919;DHT22;38793;52.690;6.812;2023-02-10T07:49:07;1.20;99.90
52919;DHT22;38793;52.690;6.812;2023-02-10T07:51:32;1.60;99.90
52919;DHT22;38793;52.690;6.812;2023-02-10T07:53:58;1.90;99.90
52919;DHT22;38793;52.690;6.812;2023-02-10T07:56:23;2.20;99.90
52919;DHT22;38793;52.690;6.812;2023-02-10T07:58:49;2.40;99.90
52919;DHT22;38793;52.690;6.812;2023-02-10T08:01:14;2.50;99.90
52919;DHT22;38793;52.690;6.812;2023-02-10T08:03:40;2.60;99.90
52919;DHT22;38793;52.690;6.812;2023-02-10T08:06:06;2.80;99.90
52919;DHT22;38793;52.690;6.812;2023-02-10T08:08:32;3.00;99.90
52919;DHT22;38793;52.690;6.812;2023-02-10T08:10:58;3.00;99.90
52919;DHT22;38793;52.690;6.812;2023-02-10T08:13:23;3.00;99.90
52919;DHT22;38793;52.690;6.812;2023-02-10T08:15:50;2.80;99.90
52919;DHT22;38793;52.690;6.812;2023-02-10T08:18:16;2.70;99.90
52919;DHT22;38793;52.690;6.812;2023-02-10T08:20:42;2.70;99.90
52919;DHT22;38793;52.690;6.812;2023-02-10T08:23:14;2.60;99.90
52919;DHT22;38793;52.690;6.812;2023-02-10T08:25:40;2.70;99.90
52919;DHT22;38793;52.690;6.812;2023-02-10T08:28:05;2.70;99.90
52919;DHT22;38793;52.690;6.812;2023-02-10T08:30:31;2.70;99.90
52919;DHT22;38793;52.690;6.812;2023-02-10T08:32:57;2.60;99.90
52919;DHT22;38793;52.690;6.812;2023-02-10T08:35:23;2.70;99.90
52919;DHT22;38793;52.690;6.812;2023-02-10T08:37:48;2.70;99.90
52919;DHT22;38793;52.690;6.812;2023-02-10T08:40:14;2.80;99.90
52919;DHT22;38793;52.690;6.812;2023-02-10T08:42:40;2.90;99.90
52919;DHT22;38793;52.690;6.812;2023-02-10T08:45:06;3.10;99.90
52919;DHT22;38793;52.690;6.812;2023-02-10T08:47:34;3.20;99.90
52919;DHT22;38793;52.690;6.812;2023-02-10T08:49:59;3.40;99.90
52919;DHT22;38793;52.690;6.812;2023-02-10T08:52:25;3.70;99.90
52919;DHT22;38793;52.690;6.812;2023-02-10T08:54:51;4.00;99.90
52919;DHT22;38793;52.690;6.812;2023-02-10T08:57:17;4.30;99.90
52919;DHT22;38793;52.690;6.812;2023-02-10T08:59:43;4.50;99.90
52919;DHT22;38793;52.690;6.812;2023-02-10T09:02:12;4.80;99.90
52919;DHT22;38793;52.690;6.812;2023-02-10T09:04:39;5.00;99.90
52919;DHT22;38793;52.690;6.812;2023-02-10T09:07:05;5.20;99.90
52919;DHT22;38793;52.690;6.812;2023-02-10T09:09:30;5.40;99.90
52919;DHT22;38793;52.690;6.812;2023-02-10T09:11:56;5.60;99.90
52919;DHT22;38793;52.690;6.812;2023-02-10T09:14:22;5.80;99.90
52919;DHT22;38793;52.690;6.812;2023-02-10T09:16:48;5.90;99.90
52919;DHT22;38793;52.690;6.812;2023-02-10T09:19:15;5.90;99.90
52919;DHT22;38793;52.690;6.812;2023-02-10T09:21:41;5.70;99.90
52919;DHT22;38793;52.690;6.812;2023-02-10T09:24:07;5.50;99.90
52919;DHT22;38793;52.690;6.812;2023-02-10T09:26:32;5.40;99.90
52919;DHT22;38793;52.690;6.812;2023-02-10T09:28:58;5.40;99.90
52919;DHT22;38793;52.690;6.812;2023-02-10T09:31:23;5.50;99.90
52919;DHT22;38793;52.690;6.812;2023-02-10T09:33:49;5.70;99.90
52919;DHT22;38793;52.690;6.812;2023-02-10T09:36:19;5.90;99.90
52919;DHT22;38793;52.690;6.812;2023-02-10T09:38:45;6.20;99.90
52919;DHT22;38793;52.690;6.812;2023-02-10T09:44:17;6.80;99.90
52919;DHT22;38793;52.690;6.812;2023-02-10T09:49:54;6.90;99.90
52919;DHT22;38793;52.690;6.812;2023-02-10T09:54:58;6.40;99.90
52919;DHT22;38793;52.690;6.812;2023-02-10T09:57:41;6.30;99.90
52919;DHT22;38793;52.690;6.812;2023-02-10T10:00:35;6.20;99.90
52919;DHT22;38793;52.690;6.812;2023-02-10T10:03:06;6.30;99.90
52919;DHT22;38793;52.690;6.812;2023-02-10T10:11:01;7.10;99.90
52919;DHT22;38793;52.690;6.812;2023-02-10T10:13:29;7.20;99.90
52919;DHT22;38793;52.690;6.812;2023-02-10T10:16:17;7.50;99.90
52919;DHT22;38793;52.690;6.812;2023-02-10T10:19:26;7.70;99.90
52919;DHT22;38793;52.690;6.812;2023-02-10T10:21:58;7.80;99.90
52919;DHT22;38793;52.690;6.812;2023-02-10T10:29:55;7.70;99.90
52919;DHT22;38793;52.690;6.812;2023-02-10T10:35:20;7.80;99.90
52919;DHT22;38793;52.690;6.812;2023-02-10T10:37:46;7.90;99.90
52919;DHT22;38793;52.690;6.812;2023-02-10T10:40:19;7.90;99.90
52919;DHT22;38793;52.690;6.812;2023-02-10T10:42:58;8.00;99.90
52919;DHT22;38793;52.690;6.812;2023-02-10T10:45:33;8.10;99.90
52919;DHT22;38793;52.690;6.812;2023-02-10T10:48:15;8.10;99.90
52919;DHT22;38793;52.690;6.812;2023-02-10T10:50:42;8.10;99.90
52919;DHT22;38793;52.690;6.812;2023-02-10T10:53:18;8.10;99.90
52919;DHT22;38793;52.690;6.812;2023-02-10T10:55:50;8.00;99.90
52919;DHT22;38793;52.690;6.812;2023-02-10T10:58:27;8.10;99.90
52919;DHT22;38793;52.690;6.812;2023-02-10T11:00:59;8.20;99.90
52919;DHT22;38793;52.690;6.812;2023-02-10T11:03:25;8.20;99.90
52919;DHT22;38793;52.690;6.812;2023-02-10T11:06:04;8.30;99.90
52919;DHT22;38793;52.690;6.812;2023-02-10T11:08:37;8.30;99.90
52919;DHT22;38793;52.690;6.812;2023-02-10T11:11:10;8.40;99.90
52919;DHT22;38793;52.690;6.812;2023-02-10T11:13:38;8.50;99.90
52919;DHT22;38793;52.690;6.812;2023-02-10T11:16:09;8.60;99.90
52919;DHT22;38793;52.690;6.812;2023-02-10T11:18:35;8.70;99.90
52919;DHT22;38793;52.690;6.812;2023-02-10T11:21:06;8.80;99.90
52919;DHT22;38793;52.690;6.812;2023-02-10T11:23:36;8.90;99.90
52919;DHT22;38793;52.690;6.812;2023-02-10T11:26:05;9.00;99.90
52919;DHT22;38793;52.690;6.812;2023-02-10T11:28:34;9.10;99.90
52919;DHT22;38793;52.690;6.812;2023-02-10T11:31:06;9.20;99.90
52919;DHT22;38793;52.690;6.812;2023-02-10T11:33:41;9.30;99.90
52919;DHT22;38793;52.690;6.812;2023-02-10T11:36:08;9.30;99.90
52919;DHT22;38793;52.690;6.812;2023-02-10T11:38:38;9.40;99.90
52919;DHT22;38793;52.690;6.812;2023-02-10T11:41:07;9.60;99.90
52919;DHT22;38793;52.690;6.812;2023-02-10T11:43:46;9.80;99.90
52919;DHT22;38793;52.690;6.812;2023-02-10T11:46:21;10.00;99.90
52919;DHT22;38793;52.690;6.812;2023-02-10T11:49:05;10.10;99.90
52919;DHT22;38793;52.690;6.812;2023-02-10T11:51:38;10.20;99.90
52919;DHT22;38793;52.690;6.812;2023-02-10T11:54:03;10.30;99.90
52919;DHT22;38793;52.690;6.812;2023-02-10T12:05:00;10.50;99.90
52919;DHT22;38793;52.690;6.812;2023-02-10T12:10:08;10.60;99.90
52919;DHT22;38793;52.690;6.812;2023-02-10T12:13:19;10.60;99.90
52919;DHT22;38793;52.690;6.812;2023-02-10T12:18:28;10.60;99.90
52919;DHT22;38793;52.690;6.812;2023-02-10T12:23:48;10.70;99.90
52919;DHT22;38793;52.690;6.812;2023-02-10T12:26:26;10.70;99.90
52919;DHT22;38793;52.690;6.812;2023-02-10T12:31:59;10.40;99.90
52919;DHT22;38793;52.690;6.812;2023-02-10T12:54:52;10.80;99.90
52919;DHT22;38793;52.690;6.812;2023-02-10T12:57:52;10.80;99.90
52919;DHT22;38793;52.690;6.812;2023-02-10T13:00:31;10.80;99.90
52919;DHT22;38793;52.690;6.812;2023-02-10T13:03:00;10.70;99.90
52919;DHT22;38793;52.690;6.812;2023-02-10T13:05:33;10.60;99.90
52919;DHT22;38793;52.690;6.812;2023-02-10T13:08:01;10.50;99.90
52919;DHT22;38793;52.690;6.812;2023-02-10T13:10:39;10.40;99.90
52919;DHT22;38793;52.690;6.812;2023-02-10T13:13:13;10.20;99.90
52919;DHT22;38793;52.690;6.812;2023-02-10T13:15:50;10.00;99.90
52919;DHT22;38793;52.690;6.812;2023-02-10T13:18:23;9.80;99.90
52919;DHT22;38793;52.690;6.812;2023-02-10T13:23:47;9.40;99.90
52919;DHT22;38793;52.690;6.812;2023-02-10T13:26:34;9.40;99.90
52919;DHT22;38793;52.690;6.812;2023-02-10T13:29:08;9.30;99.90
52919;DHT22;38793;52.690;6.812;2023-02-10T13:31:48;9.10;99.90
52919;DHT22;38793;52.690;6.812;2023-02-10T13:36:51;9.00;99.90
52919;DHT22;38793;52.690;6.812;2023-02-10T13:39:21;8.90;99.90
52919;DHT22;38793;52.690;6.812;2023-02-10T13:41:50;8.90;99.90
52919;DHT22;38793;52.690;6.812;2023-02-10T13:49:37;8.70;99.90
52919;DHT22;38793;52.690;6.812;2023-02-10T13:52:15;8.70;99.90
52919;DHT22;38793;52.690;6.812;2023-02-10T13:55:00;8.60;99.90
52919;DHT22;38793;52.690;6.812;2023-02-10T13:57:29;8.70;99.90
52919;DHT22;38793;52.690;6.812;2023-02-10T14:00:12;8.80;99.90
52919;DHT22;38793;52.690;6.812;2023-02-10T14:02:38;8.90;99.90
52919;DHT22;38793;52.690;6.812;2023-02-10T14:05:33;9.00;99.90
52919;DHT22;38793;52.690;6.812;2023-02-10T14:07:59;9.10;99.90
52919;DHT22;38793;52.690;6.812;2023-02-10T14:10:29;9.30;99.90
52919;DHT22;38793;52.690;6.812;2023-02-10T14:15:29;9.70;99.90
52919;DHT22;38793;52.690;6.812;2023-02-10T14:18:01;9.70;99.90
52919;DHT22;38793;52.690;6.812;2023-02-10T14:20:30;9.80;99.90
52919;DHT22;38793;52.690;6.812;2023-02-10T14:22:57;9.80;99.90
52919;DHT22;38793;52.690;6.812;2023-02-10T14:25:33;9.80;99.90
52919;DHT22;38793;52.690;6.812;2023-02-10T14:27:59;9.90;99.90
52919;DHT22;38793;52.690;6.812;2023-02-10T14:30:40;10.00;99.90
52919;DHT22;38793;52.690;6.812;2023-02-10T14:33:21;10.00;99.90
52919;DHT22;38793;52.690;6.812;2023-02-10T14:36:04;9.90;99.90
52919;DHT22;38793;52.690;6.812;2023-02-10T14:38:33;10.00;99.90
52919;DHT22;38793;52.690;6.812;2023-02-10T14:41:03;10.10;99.90
52919;DHT22;38793;52.690;6.812;2023-02-10T14:43:31;10.10;99.90
52919;DHT22;38793;52.690;6.812;2023-02-10T14:45:59;10.20;99.90
52919;DHT22;38793;52.690;6.812;2023-02-10T14:48:27;10.30;99.90
52919;DHT22;38793;52.690;6.812;2023-02-10T14:50:59;10.40;99.90
52919;DHT22;38793;52.690;6.812;2023-02-10T14:53:25;10.50;99.90
52919;DHT22;38793;52.690;6.812;2023-02-10T14:55:57;10.70;99.90
52919;DHT22;38793;52.690;6.812;2023-02-10T14:58:23;11.10;99.90
52919;DHT22;38793;52.690;6.812;2023-02-10T15:03:31;11.80;99.90
52919;DHT22;38793;52.690;6.812;2023-02-10T15:05:57;12.00;99.90
52919;DHT22;38793;52.690;6.812;2023-02-10T15:08:36;12.10;99.90
52919;DHT22;38793;52.690;6.812;2023-02-10T15:11:06;12.10;99.00
52919;DHT22;38793;52.690;6.812;2023-02-10T15:13:39;11.90;98.70
52919;DHT22;38793;52.690;6.812;2023-02-10T15:16:08;11.60;99.10
52919;DHT22;38793;52.690;6.812;2023-02-10T15:18:40;11.30;99.40
52919;DHT22;38793;52.690;6.812;2023-02-10T15:21:27;11.00;99.50
52919;DHT22;38793;52.690;6.812;2023-02-10T15:23:53;10.60;99.50
52919;DHT22;38793;52.690;6.812;2023-02-10T15:26:24;10.30;99.90
52919;DHT22;38793;52.690;6.812;2023-02-10T15:29:08;10.10;99.90
52919;DHT22;38793;52.690;6.812;2023-02-10T15:31:34;9.90;99.90
52919;DHT22;38793;52.690;6.812;2023-02-10T15:34:02;9.70;99.90
52919;DHT22;38793;52.690;6.812;2023-02-10T15:36:32;9.50;99.90
52919;DHT22;38793;52.690;6.812;2023-02-10T15:39:04;9.20;99.90
52919;DHT22;38793;52.690;6.812;2023-02-10T15:44:29;8.70;99.90
52919;DHT22;38793;52.690;6.812;2023-02-10T15:49:41;8.30;99.90
52919;DHT22;38793;52.690;6.812;2023-02-10T15:52:31;8.10;99.90
52919;DHT22;38793;52.690;6.812;2023-02-10T15:55:01;8.00;99.90
52919;DHT22;38793;52.690;6.812;2023-02-10T15:57:27;7.90;99.90
52919;DHT22;38793;52.690;6.812;2023-02-10T15:59:53;7.90;99.90
52919;DHT22;38793;52.690;6.812;2023-02-10T16:02:20;7.80;99.90
52919;DHT22;38793;52.690;6.812;2023-02-10T16:04:47;7.70;99.90
52919;DHT22;38793;52.690;6.812;2023-02-10T16:07:22;7.60;99.90
52919;DHT22;38793;52.690;6.812;2023-02-10T16:09:49;7.60;99.90
52919;DHT22;38793;52.690;6.812;2023-02-10T16:12:15;7.60;99.90
52919;DHT22;38793;52.690;6.812;2023-02-10T16:14:41;7.50;99.90
52919;DHT22;38793;52.690;6.812;2023-02-10T16:17:07;7.40;99.90
52919;DHT22;38793;52.690;6.812;2023-02-10T16:19:33;7.40;99.90
52919;DHT22;38793;52.690;6.812;2023-02-10T16:21:59;7.40;99.90
52919;DHT22;38793;52.690;6.812;2023-02-10T16:24:27;7.30;99.90
52919;DHT22;38793;52.690;6.812;2023-02-10T16:26:54;7.30;99.90
52919;DHT22;38793;52.690;6.812;2023-02-10T16:29:25;7.20;99.90
52919;DHT22;38793;52.690;6.812;2023-02-10T16:31:52;7.10;99.90
52919;DHT22;38793;52.690;6.812;2023-02-10T16:34:18;7.10;99.90
52919;DHT22;38793;52.690;6.812;2023-02-10T16:36:43;7.00;99.90
52919;DHT22;38793;52.690;6.812;2023-02-10T16:39:20;6.90;99.90
52919;DHT22;38793;52.690;6.812;2023-02-10T16:41:48;6.90;99.90
52919;DHT22;38793;52.690;6.812;2023-02-10T16:44:14;6.80;99.90
52919;DHT22;38793;52.690;6.812;2023-02-10T16:46:40;6.70;99.90
52919;DHT22;38793;52.690;6.812;2023-02-10T16:49:06;6.70;99.90
52919;DHT22;38793;52.690;6.812;2023-02-10T16:51:33;6.70;99.90
52919;DHT22;38793;52.690;6.812;2023-02-10T16:53:58;6.60;99.90
52919;DHT22;38793;52.690;6.812;2023-02-10T16:56:24;6.60;99.90
52919;DHT22;38793;52.690;6.812;2023-02-10T16:58:50;6.60;99.90
52919;DHT22;38793;52.690;6.812;2023-02-10T17:01:16;6.50;99.90
52919;DHT22;38793;52.690;6.812;2023-02-10T17:03:43;6.50;99.90
52919;DHT22;38793;52.690;6.812;2023-02-10T17:06:15;6.40;99.90
52919;DHT22;38793;52.690;6.812;2023-02-10T17:08:42;6.40;99.90
52919;DHT22;38793;52.690;6.812;2023-02-10T17:11:07;6.40;99.90
52919;DHT22;38793;52.690;6.812;2023-02-10T17:13:34;6.40;99.90
52919;DHT22;38793;52.690;6.812;2023-02-10T17:16:00;6.30;99.90
52919;DHT22;38793;52.690;6.812;2023-02-10T17:18:25;6.30;99.90
52919;DHT22;38793;52.690;6.812;2023-02-10T17:20:51;6.30;99.90
52919;DHT22;38793;52.690;6.812;2023-02-10T17:23:17;6.30;99.90
52919;DHT22;38793;52.690;6.812;2023-02-10T17:25:42;6.30;99.90
52919;DHT22;38793;52.690;6.812;2023-02-10T17:28:08;6.30;99.90
52919;DHT22;38793;52.690;6.812;2023-02-10T17:30:34;6.30;99.90
52919;DHT22;38793;52.690;6.812;2023-02-10T17:33:02;6.20;99.90
52919;DHT22;38793;52.690;6.812;2023-02-10T17:35:27;6.20;99.90
52919;DHT22;38793;52.690;6.812;2023-02-10T17:37:55;6.20;99.90
52919;DHT22;38793;52.690;6.812;2023-02-10T17:40:50;6.20;99.90
52919;DHT22;38793;52.690;6.812;2023-02-10T17:43:16;6.10;99.90
52919;DHT22;38793;52.690;6.812;2023-02-10T17:45:41;6.10;99.90